createdAt,value
2019-03-31T00:01:54.231Z,101795.81
2019-03-31T00:04:22.268Z,101800.47
2019-03-31T00:06:50.255Z,101804.89
2019-03-31T00:09:18.256Z,101799.27
2019-03-31T00:11:46.282Z,101810.56
2019-03-31T00:14:14.530Z,101807.72
2019-03-31T00:16:42.511Z,101809.34
2019-03-31T00:19:10.488Z,101815.45
2019-03-31T00:21:38.486Z,101818.10
2019-03-31T00:24:06.482Z,101815.34
2019-03-31T00:26:34.513Z,101793.61
2019-03-31T00:29:03.698Z,101813.58
2019-03-31T00:31:34.570Z,101730.12
2019-03-31T00:34:02.621Z,101823.03
2019-03-31T00:36:30.607Z,101819.14
2019-03-31T00:38:58.577Z,101824.34
2019-03-31T00:41:26.554Z,101821.06
2019-03-31T00:43:54.542Z,101826.53
2019-03-31T00:46:22.545Z,101821.45
2019-03-31T00:48:50.626Z,101825.43
2019-03-31T00:51:18.634Z,101820.57
2019-03-31T00:53:46.614Z,101823.56
2019-03-31T00:56:14.859Z,101823.95
2019-03-31T00:58:42.855Z,101826.91
2019-03-31T01:01:36.435Z,101826.67
2019-03-31T01:03:58.266Z,101819.56
2019-03-31T01:06:26.526Z,101823.20
2019-03-31T01:08:54.686Z,101825.66
2019-03-31T01:11:25.053Z,101833.64
2019-03-31T01:13:53.026Z,101836.81
2019-03-31T01:16:21.594Z,101833.36
2019-03-31T01:18:49.580Z,101842.41
2019-03-31T01:21:17.927Z,101837.11
2019-03-31T01:23:46.004Z,101841.31
2019-03-31T01:26:15.511Z,101845.40
2019-03-31T01:28:43.491Z,101845.91
2019-03-31T01:31:11.519Z,101842.66
2019-03-31T01:33:39.506Z,101788.78
2019-03-31T01:36:20.331Z,101836.05
2019-03-31T01:38:41.479Z,101848.20
2019-03-31T01:41:09.489Z,101842.83
2019-03-31T01:43:37.475Z,101842.73
2019-03-31T01:46:07.231Z,101849.55
2019-03-31T01:48:35.238Z,101847.97
2019-03-31T01:51:03.782Z,101851.53
2019-03-31T01:53:31.770Z,101852.73
2019-03-31T01:55:59.779Z,101854.23
2019-03-31T01:58:27.757Z,101855.55
2019-03-31T02:00:58.814Z,101849.87
2019-03-31T02:03:26.811Z,101845.90
2019-03-31T02:05:54.809Z,101852.00
2019-03-31T02:08:22.785Z,101851.33
2019-03-31T02:10:50.840Z,101849.34
2019-03-31T02:13:20.303Z,101855.12
2019-03-31T02:15:54.181Z,101854.72
2019-03-31T02:18:22.154Z,101854.21
2019-03-31T02:20:50.225Z,101855.84
2019-03-31T02:23:18.352Z,101852.09
2019-03-31T02:25:46.341Z,101845.14
2019-03-31T02:28:14.350Z,101849.45
2019-03-31T02:30:42.411Z,101844.85
2019-03-31T02:33:10.449Z,101848.06
2019-03-31T02:35:38.488Z,101854.22
2019-03-31T02:38:06.487Z,101820.20
2019-03-31T02:40:34.647Z,101746.14
2019-03-31T02:43:02.703Z,101841.59
2019-03-31T02:45:30.790Z,101844.75
2019-03-31T02:47:58.842Z,101839.59
2019-03-31T02:50:42.991Z,101753.80
2019-03-31T02:53:11.231Z,101850.51
2019-03-31T02:55:39.354Z,101860.09
2019-03-31T02:58:07.394Z,101860.39
2019-03-31T03:00:35.398Z,101862.70
2019-03-31T03:03:03.456Z,101864.67
2019-03-31T03:05:31.555Z,101862.91
2019-03-31T03:07:59.544Z,101872.89
2019-03-31T03:10:27.532Z,101872.84
2019-03-31T03:12:55.791Z,101867.90
2019-03-31T03:15:27.115Z,101869.70
2019-03-31T03:17:55.113Z,101870.27
2019-03-31T03:20:23.354Z,101874.37
2019-03-31T03:22:52.733Z,101875.89
2019-03-31T03:25:23.218Z,101876.33
2019-03-31T03:27:51.611Z,101879.03
2019-03-31T03:30:19.706Z,101879.59
2019-03-31T03:33:12.154Z,101816.91
2019-03-31T03:35:17.434Z,101883.27
2019-03-31T03:37:45.497Z,101880.17
2019-03-31T03:40:13.547Z,101881.47
2019-03-31T03:42:41.552Z,101881.87
2019-03-31T03:45:09.593Z,101884.41
2019-03-31T03:47:37.590Z,101893.91
2019-03-31T03:50:05.811Z,101893.23
2019-03-31T03:52:33.843Z,101895.00
2019-03-31T03:55:01.881Z,101895.64
2019-03-31T03:57:29.955Z,101829.47
2019-03-31T03:59:57.966Z,101896.08
2019-03-31T04:02:25.955Z,101911.55
2019-03-31T04:05:04.409Z,101907.97
2019-03-31T04:07:26.847Z,101813.93
2019-03-31T04:09:54.961Z,101910.97
2019-03-31T04:12:23.145Z,101911.95
2019-03-31T04:14:51.188Z,101837.37
2019-03-31T04:17:19.233Z,101915.53
2019-03-31T04:19:47.220Z,101928.05
2019-03-31T04:22:15.195Z,101925.34
2019-03-31T04:24:43.234Z,101899.97
2019-03-31T04:27:11.207Z,101940.55
2019-03-31T04:29:39.188Z,101922.63
2019-03-31T04:32:07.210Z,101938.30
2019-03-31T04:34:35.182Z,101934.30
2019-03-31T04:37:03.170Z,101945.90
2019-03-31T04:39:31.310Z,101952.59
2019-03-31T04:41:59.312Z,101958.38
2019-03-31T04:44:29.941Z,101949.94
2019-03-31T04:47:01.708Z,101952.91
2019-03-31T04:49:29.690Z,101958.82
2019-03-31T04:51:57.686Z,101956.12
2019-03-31T04:54:25.699Z,101958.79
2019-03-31T04:56:53.702Z,101963.23
2019-03-31T04:59:21.706Z,101965.48
2019-03-31T05:01:49.706Z,101969.98
2019-03-31T05:04:17.727Z,101977.56
2019-03-31T05:06:46.087Z,101979.74
2019-03-31T05:09:14.091Z,101982.91
2019-03-31T05:11:42.116Z,101987.34
2019-03-31T05:14:10.184Z,101993.59
2019-03-31T05:16:38.190Z,101992.67
2019-03-31T05:19:06.232Z,101998.52
2019-03-31T05:21:34.233Z,101913.62
2019-03-31T05:24:05.791Z,102007.27
2019-03-31T05:26:35.990Z,101946.25
2019-03-31T05:29:04.008Z,102019.31
2019-03-31T05:31:32.016Z,102023.15
2019-03-31T05:34:00.042Z,102033.31
2019-03-31T05:36:28.069Z,102036.45
2019-03-31T05:38:56.066Z,102035.53
2019-03-31T05:41:24.068Z,102042.73
2019-03-31T05:44:05.100Z,102040.14
2019-03-31T05:46:21.798Z,102053.07
2019-03-31T05:48:49.814Z,102052.62
2019-03-31T05:51:17.880Z,101957.08
2019-03-31T05:53:45.894Z,102068.83
2019-03-31T05:56:13.919Z,102074.70
2019-03-31T05:58:41.923Z,102073.32
2019-03-31T06:01:09.907Z,102078.35
2019-03-31T06:03:38.035Z,102068.05
2019-03-31T06:06:11.329Z,102080.62
2019-03-31T06:08:39.337Z,102081.19
2019-03-31T06:11:07.323Z,102081.37
2019-03-31T06:13:35.348Z,102082.77
2019-03-31T06:16:03.419Z,102084.95
2019-03-31T06:18:31.405Z,102088.76
2019-03-31T06:20:59.410Z,102097.11
2019-03-31T06:23:27.426Z,102091.81
2019-03-31T06:25:55.411Z,102096.14
2019-03-31T06:28:23.406Z,102097.04
2019-03-31T06:30:51.506Z,102100.12
2019-03-31T06:33:19.598Z,102098.71
2019-03-31T06:35:47.594Z,102100.03
2019-03-31T06:38:15.583Z,102103.45
2019-03-31T06:40:45.221Z,102108.83
2019-03-31T06:43:20.842Z,102110.97
2019-03-31T06:45:48.865Z,102115.30
2019-03-31T06:48:19.058Z,102114.69
2019-03-31T06:50:47.038Z,102124.79
2019-03-31T06:53:15.085Z,102128.82
2019-03-31T06:55:43.055Z,102129.67
2019-03-31T06:58:11.049Z,102142.04
2019-03-31T07:00:44.444Z,102137.31
2019-03-31T07:03:14.854Z,102147.53
2019-03-31T07:05:42.847Z,102149.31
2019-03-31T07:08:10.866Z,102143.07
2019-03-31T07:10:38.942Z,102103.70
2019-03-31T07:13:08.632Z,102146.20
2019-03-31T07:15:42.478Z,102158.13
2019-03-31T07:18:10.460Z,102161.73
2019-03-31T07:20:41.573Z,102166.27
2019-03-31T07:23:09.598Z,102169.47
2019-03-31T07:25:37.615Z,102182.00
2019-03-31T07:28:05.610Z,102177.09
2019-03-31T07:30:33.650Z,102185.59
2019-03-31T07:33:01.636Z,102193.58
2019-03-31T07:35:29.645Z,102194.47
2019-03-31T07:37:57.714Z,102194.06
2019-03-31T07:40:25.770Z,102199.41
2019-03-31T07:42:53.817Z,102200.77
2019-03-31T07:45:21.905Z,102200.77
2019-03-31T07:47:54.178Z,102204.33
2019-03-31T07:50:22.726Z,102205.65
2019-03-31T07:52:50.519Z,102210.11
2019-03-31T07:55:18.680Z,102215.05
2019-03-31T07:57:46.824Z,102147.55
2019-03-31T08:00:16.079Z,102213.27
2019-03-31T08:02:44.400Z,102210.13
2019-03-31T08:05:12.395Z,102215.05
2019-03-31T08:07:40.419Z,102216.83
2019-03-31T08:10:08.453Z,102221.75
2019-03-31T08:12:36.738Z,102222.64
2019-03-31T08:15:04.855Z,102220.86
2019-03-31T08:17:32.983Z,102226.22
2019-03-31T08:20:01.057Z,102237.83
2019-03-31T08:22:29.077Z,102224.45
2019-03-31T08:24:57.062Z,102185.13
2019-03-31T08:27:25.097Z,102240.52
2019-03-31T08:30:01.331Z,102239.63
2019-03-31T08:32:29.407Z,102192.28
2019-03-31T08:35:00.423Z,102246.00
2019-03-31T08:37:28.492Z,102262.04
2019-03-31T08:39:56.574Z,102259.12
2019-03-31T08:42:24.761Z,102266.51
2019-03-31T08:44:52.894Z,102268.17
2019-03-31T08:47:38.462Z,102273.05
2019-03-31T08:50:06.574Z,102275.16
2019-03-31T08:52:34.609Z,102271.72
2019-03-31T08:55:02.792Z,102272.50
2019-03-31T08:57:51.208Z,102275.22
2019-03-31T09:00:26.527Z,102273.19
2019-03-31T09:02:54.554Z,102293.97
2019-03-31T09:05:22.813Z,102293.91
2019-03-31T09:07:50.822Z,102295.36
2019-03-31T09:10:18.872Z,102298.55
2019-03-31T09:12:48.463Z,102305.69
2019-03-31T09:15:29.231Z,102300.98
2019-03-31T09:17:54.628Z,102288.66
2019-03-31T09:20:22.766Z,102304.94
2019-03-31T09:22:50.795Z,102309.95
2019-03-31T09:25:18.803Z,102299.55
2019-03-31T09:27:46.829Z,102313.34
2019-03-31T09:30:14.824Z,102310.75
2019-03-31T09:32:43.064Z,102303.55
2019-03-31T09:35:11.159Z,102311.29
2019-03-31T09:37:39.154Z,102311.37
2019-03-31T09:40:07.186Z,102303.80
2019-03-31T09:42:35.191Z,102305.95
2019-03-31T09:45:03.194Z,102312.61
2019-03-31T09:47:31.196Z,102308.47
2019-03-31T09:49:59.306Z,102315.91
2019-03-31T09:52:27.310Z,102307.87
2019-03-31T09:54:59.799Z,102310.27
2019-03-31T09:57:27.823Z,102307.92
2019-03-31T09:59:55.811Z,102321.80
2019-03-31T10:02:23.840Z,102311.33
2019-03-31T10:04:51.874Z,102305.01
2019-03-31T10:07:19.874Z,102310.00
2019-03-31T10:09:47.866Z,102311.26
2019-03-31T10:12:15.880Z,102301.23
2019-03-31T10:14:43.968Z,102300.84
2019-03-31T10:17:12.023Z,102307.80
2019-03-31T10:19:40.070Z,102308.20
2019-03-31T10:22:08.186Z,102305.84
2019-03-31T10:24:36.341Z,102312.47
2019-03-31T10:27:05.442Z,102312.45
2019-03-31T10:29:33.540Z,102278.19
2019-03-31T10:32:08.223Z,102312.58
2019-03-31T10:34:36.204Z,102310.42
2019-03-31T10:37:04.275Z,102313.09
2019-03-31T10:39:32.329Z,102319.78
2019-03-31T10:42:00.406Z,102315.70
2019-03-31T10:44:28.423Z,102330.09
2019-03-31T10:46:58.462Z,102340.74
2019-03-31T10:49:26.756Z,102331.94
2019-03-31T10:51:54.874Z,102276.17
2019-03-31T10:54:23.107Z,102323.13
2019-03-31T10:56:51.111Z,102263.02
2019-03-31T10:59:19.207Z,102326.62
2019-03-31T11:01:47.213Z,102324.94
2019-03-31T11:04:15.202Z,102327.43
2019-03-31T11:06:58.012Z,102327.05
2019-03-31T11:09:17.145Z,102326.70
2019-03-31T11:11:45.110Z,102211.73
2019-03-31T11:14:13.130Z,102213.13
2019-03-31T11:16:41.196Z,102329.58
2019-03-31T11:19:09.279Z,102342.04
2019-03-31T11:21:45.494Z,102327.14
2019-03-31T11:24:13.481Z,102329.38
2019-03-31T11:26:41.450Z,102331.00
2019-03-31T11:29:09.521Z,102329.34
2019-03-31T11:31:37.626Z,102262.67
2019-03-31T11:34:05.719Z,102327.20
2019-03-31T11:36:33.863Z,102333.88
2019-03-31T11:39:10.149Z,102332.77
2019-03-31T11:41:38.252Z,102325.53
2019-03-31T11:44:08.926Z,102330.20
2019-03-31T11:46:38.358Z,102329.67
2019-03-31T11:49:06.832Z,102330.45
2019-03-31T11:51:35.926Z,102334.48
2019-03-31T11:54:11.875Z,102340.66
2019-03-31T11:56:44.371Z,102345.27
2019-03-31T11:59:09.751Z,102339.23
2019-03-31T12:01:37.911Z,102337.63
2019-03-31T12:04:06.029Z,102336.41
2019-03-31T12:06:34.180Z,102338.45
2019-03-31T12:09:04.028Z,102342.43
2019-03-31T12:11:35.296Z,102339.88
2019-03-31T12:14:03.306Z,102349.30
2019-03-31T12:16:31.289Z,102349.88
2019-03-31T12:18:59.334Z,102353.25
2019-03-31T12:21:27.429Z,102345.37
2019-03-31T12:23:55.535Z,102338.52
2019-03-31T12:26:23.795Z,102347.28
2019-03-31T12:28:51.827Z,102344.30
2019-03-31T12:31:19.854Z,102338.01
2019-03-31T12:33:47.898Z,102340.89
2019-03-31T12:36:15.922Z,102344.77
2019-03-31T12:38:44.022Z,102345.13
2019-03-31T12:41:11.987Z,102342.66
2019-03-31T12:43:40.066Z,102341.00
2019-03-31T12:46:08.027Z,102245.10
2019-03-31T12:48:42.973Z,102336.09
2019-03-31T12:51:11.007Z,102329.19
2019-03-31T12:53:39.030Z,102340.40
2019-03-31T12:56:07.062Z,102336.98
2019-03-31T12:58:35.184Z,102330.69
2019-03-31T13:01:03.306Z,102204.43
2019-03-31T13:03:31.445Z,102286.41
2019-03-31T13:05:59.794Z,102344.64
2019-03-31T13:08:27.775Z,102331.78
2019-03-31T13:10:55.794Z,102332.16
2019-03-31T13:13:23.810Z,102339.52
2019-03-31T13:15:51.806Z,102261.60
2019-03-31T13:18:19.823Z,102327.70
2019-03-31T13:20:47.898Z,102330.73
2019-03-31T13:23:15.902Z,102325.90
2019-03-31T13:25:51.811Z,102327.95
2019-03-31T13:28:19.802Z,102320.14
2019-03-31T13:30:47.870Z,102326.38
2019-03-31T13:33:15.867Z,102329.16
2019-03-31T13:35:47.187Z,102327.58
2019-03-31T13:38:15.161Z,102332.53
2019-03-31T13:40:43.226Z,102335.19
2019-03-31T13:43:11.297Z,102290.83
2019-03-31T13:45:39.270Z,102332.72
2019-03-31T13:48:07.407Z,102322.81
2019-03-31T13:50:35.424Z,102323.77
2019-03-31T13:53:03.418Z,102329.97
2019-03-31T13:55:31.418Z,102328.56
2019-03-31T13:58:00.228Z,102331.20
2019-03-31T14:00:39.442Z,102334.20
2019-03-31T14:03:07.744Z,102334.61
2019-03-31T14:05:35.827Z,102243.86
2019-03-31T14:08:03.928Z,102331.64
2019-03-31T14:10:32.882Z,102328.52
2019-03-31T14:13:01.125Z,102342.16
2019-03-31T14:15:29.149Z,102340.33
2019-03-31T14:17:57.216Z,102328.95
2019-03-31T14:20:25.205Z,102331.77
2019-03-31T14:22:53.636Z,102332.61
2019-03-31T14:25:21.732Z,102329.66
2019-03-31T14:27:49.782Z,102331.69
2019-03-31T14:30:17.788Z,102328.19
2019-03-31T14:32:46.130Z,102335.31
2019-03-31T14:35:21.901Z,102329.55
2019-03-31T14:37:47.419Z,102329.96
2019-03-31T14:40:26.586Z,102337.23
2019-03-31T14:43:07.750Z,102330.75
2019-03-31T14:45:35.762Z,102343.92
2019-03-31T14:48:03.814Z,102341.25
2019-03-31T14:50:32.502Z,102336.07
2019-03-31T14:53:00.528Z,102348.91
2019-03-31T14:55:28.587Z,102346.05
2019-03-31T14:57:56.582Z,102344.12
2019-03-31T15:00:34.409Z,102340.98
2019-03-31T15:03:02.409Z,102331.50
2019-03-31T15:05:43.536Z,102339.05
2019-03-31T15:08:11.519Z,102333.84
2019-03-31T15:10:39.507Z,102250.45
2019-03-31T15:13:07.523Z,102331.16
2019-03-31T15:15:35.621Z,102319.42
2019-03-31T15:18:03.712Z,102332.38
2019-03-31T15:20:31.687Z,102207.63
2019-03-31T15:22:59.672Z,102338.86
2019-03-31T15:25:27.680Z,102341.02
2019-03-31T15:27:55.689Z,102337.23
2019-03-31T15:30:41.242Z,102337.59
2019-03-31T15:33:09.235Z,102325.29
2019-03-31T15:35:38.046Z,102340.34
2019-03-31T15:38:06.247Z,102341.72
2019-03-31T15:40:34.286Z,102334.34
2019-03-31T15:43:02.338Z,102326.05
2019-03-31T15:45:33.458Z,102324.03
2019-03-31T15:48:01.546Z,102313.68
2019-03-31T15:50:29.526Z,102330.10
2019-03-31T15:52:57.504Z,102324.63
2019-03-31T15:55:25.534Z,102326.23
2019-03-31T15:57:54.730Z,102333.52
2019-03-31T16:00:30.359Z,102334.79
2019-03-31T16:02:58.334Z,102347.45
2019-03-31T16:05:26.498Z,102337.06
2019-03-31T16:07:54.225Z,102344.16
2019-03-31T16:10:21.935Z,102338.59
2019-03-31T16:12:49.739Z,102345.84
2019-03-31T16:15:17.538Z,102345.89
2019-03-31T16:17:45.352Z,102341.00
2019-03-31T16:20:13.104Z,102343.70
2019-03-31T16:22:40.822Z,102343.41
2019-03-31T16:25:15.769Z,102346.50
2019-03-31T16:27:43.503Z,102342.02
2019-03-31T16:30:12.274Z,102342.08
2019-03-31T16:32:59.087Z,102342.66
2019-03-31T16:35:26.915Z,102338.43
2019-03-31T16:37:54.762Z,102337.96
2019-03-31T16:40:45.683Z,102344.12
2019-03-31T16:43:19.354Z,102350.88
2019-03-31T16:45:46.515Z,102353.27
2019-03-31T16:48:14.231Z,102353.34
2019-03-31T16:50:43.956Z,102356.02
2019-03-31T16:53:13.789Z,102358.10
2019-03-31T16:55:41.553Z,102359.59
2019-03-31T16:58:10.133Z,102357.62
2019-03-31T17:00:37.839Z,102360.45
2019-03-31T17:03:05.555Z,102362.47
2019-03-31T17:05:33.262Z,102355.33
2019-03-31T17:08:00.989Z,102359.56
2019-03-31T17:10:28.697Z,102358.97
2019-03-31T17:12:56.493Z,102357.14
2019-03-31T17:15:24.197Z,102352.34
2019-03-31T17:17:51.927Z,102368.73
2019-03-31T17:20:19.646Z,102312.12
2019-03-31T17:22:47.432Z,102367.94
2019-03-31T17:25:15.211Z,102361.98
2019-03-31T17:27:42.931Z,102357.93
2019-03-31T17:30:10.655Z,102363.13
2019-03-31T17:32:41.497Z,102364.31
2019-03-31T17:35:12.280Z,102365.36
2019-03-31T17:37:40.000Z,102370.13
2019-03-31T17:40:07.744Z,102376.59
2019-03-31T17:42:35.459Z,102374.96
2019-03-31T17:45:03.271Z,102371.30
2019-03-31T17:47:31.050Z,102370.72
2019-03-31T17:49:58.778Z,102378.78
2019-03-31T17:52:26.562Z,102384.03
2019-03-31T17:54:54.360Z,102379.98
2019-03-31T17:57:22.091Z,102387.23
2019-03-31T17:59:49.846Z,102380.61
2019-03-31T18:02:17.650Z,102386.92
2019-03-31T18:04:45.456Z,102387.58
2019-03-31T18:07:13.212Z,102394.15
2019-03-31T18:09:42.620Z,102401.10
2019-03-31T18:12:22.961Z,102401.43
2019-03-31T18:14:42.736Z,102403.14
2019-03-31T18:17:10.750Z,102404.50
2019-03-31T18:19:39.314Z,102408.23
2019-03-31T18:22:16.313Z,102413.11
2019-03-31T18:24:36.548Z,102414.13
2019-03-31T18:27:04.286Z,102420.77
2019-03-31T18:29:32.096Z,102426.46
2019-03-31T18:31:59.930Z,102433.32
2019-03-31T18:34:27.796Z,102430.53
2019-03-31T18:36:55.939Z,102436.95
2019-03-31T18:39:23.696Z,102438.83
2019-03-31T18:41:51.409Z,102437.95
2019-03-31T18:44:19.142Z,102448.76
2019-03-31T18:46:46.924Z,102448.02
2019-03-31T18:49:14.807Z,102346.63
2019-03-31T18:51:42.647Z,102356.55
2019-03-31T18:54:29.226Z,102450.26
2019-03-31T18:57:19.715Z,102391.23
2019-03-31T18:59:54.134Z,102456.75
2019-03-31T19:02:47.514Z,102461.47
2019-03-31T19:05:34.106Z,102460.03
2019-03-31T19:08:17.746Z,102463.73
2019-03-31T19:11:09.786Z,102473.04
2019-03-31T19:13:55.494Z,102483.97
2019-03-31T19:16:33.708Z,102484.91
2019-03-31T19:19:25.936Z,102488.70
2019-03-31T19:22:05.998Z,102489.31
2019-03-31T19:24:55.960Z,102349.02
2019-03-31T19:27:35.590Z,102492.27
2019-03-31T19:30:26.270Z,102498.90
2019-03-31T19:33:08.790Z,102504.33
2019-03-31T19:35:55.639Z,102493.83
2019-03-31T19:38:33.763Z,102496.39
2019-03-31T19:41:18.334Z,102497.73
2019-03-31T19:44:08.151Z,102495.08
2019-03-31T19:46:43.534Z,102499.09
2019-03-31T19:49:29.318Z,102504.91
2019-03-31T19:52:28.572Z,102505.20
2019-03-31T19:55:05.016Z,102502.50
2019-03-31T19:57:51.903Z,102508.59
2019-03-31T20:00:57.213Z,102512.80
2019-03-31T20:03:33.264Z,102513.44
2019-03-31T20:06:23.267Z,102517.18
2019-03-31T20:09:18.144Z,102522.13
2019-03-31T20:11:59.612Z,102524.80
2019-03-31T20:14:47.458Z,102522.57
2019-03-31T20:17:43.479Z,102525.23
2019-03-31T20:20:30.298Z,102529.67
2019-03-31T20:23:26.315Z,102531.45
2019-03-31T20:26:11.936Z,102536.66
2019-03-31T20:28:59.347Z,102524.21
2019-03-31T20:31:50.959Z,102529.98
2019-03-31T20:34:27.922Z,102532.57
2019-03-31T20:37:24.062Z,102531.58
2019-03-31T20:40:04.751Z,102531.72
2019-03-31T20:42:50.325Z,102531.73
2019-03-31T20:45:18.098Z,102528.95
2019-03-31T20:47:45.828Z,102391.45
2019-03-31T20:50:26.844Z,102527.53
2019-03-31T20:52:54.951Z,102544.06
2019-03-31T20:55:23.161Z,102545.53
2019-03-31T20:57:50.903Z,102537.64
2019-03-31T21:00:18.695Z,102550.41
2019-03-31T21:02:46.525Z,102550.87
2019-03-31T21:05:14.319Z,102414.23
2019-03-31T21:07:42.037Z,102556.19
2019-03-31T21:10:09.755Z,102493.88
2019-03-31T21:12:37.473Z,102549.52
2019-03-31T21:15:05.394Z,102551.46
2019-03-31T21:17:33.127Z,102555.13
2019-03-31T21:20:00.820Z,102556.56
2019-03-31T21:22:28.581Z,102546.16
2019-03-31T21:24:58.411Z,102562.13
2019-03-31T21:27:26.131Z,102562.84
2019-03-31T21:29:57.167Z,102561.16
2019-03-31T21:32:30.432Z,102561.05
2019-03-31T21:34:58.223Z,102567.89
2019-03-31T21:37:25.966Z,102567.19
2019-03-31T21:39:53.691Z,102573.34
2019-03-31T21:42:21.415Z,102573.36
2019-03-31T21:44:49.143Z,102576.38
2019-03-31T21:47:16.958Z,102578.59
2019-03-31T21:49:45.087Z,102574.48
2019-03-31T21:52:12.934Z,102578.73
2019-03-31T21:54:40.667Z,102574.33
2019-03-31T22:00:09.431Z,102576.22
2019-03-31T22:02:37.202Z,102578.97
2019-03-31T22:05:05.531Z,102580.27
2019-03-31T22:07:33.237Z,102579.47
2019-03-31T22:10:01.071Z,102578.92
2019-03-31T22:12:28.798Z,102580.67
2019-03-31T22:14:56.610Z,102582.13
2019-03-31T22:17:24.320Z,102575.00
2019-03-31T22:19:52.087Z,102579.59
2019-03-31T22:22:19.788Z,102568.62
2019-03-31T22:24:47.559Z,102581.66
2019-03-31T22:27:15.287Z,102576.39
2019-03-31T22:29:43.038Z,102578.31
2019-03-31T22:32:10.755Z,102578.85
2019-03-31T22:34:38.527Z,102457.50
2019-03-31T22:37:07.510Z,102577.66
2019-03-31T22:39:35.201Z,102584.69
2019-03-31T22:42:04.231Z,102592.75
2019-03-31T22:44:31.947Z,102588.88
2019-03-31T22:46:59.758Z,102583.11
2019-03-31T22:49:27.491Z,102592.44
2019-03-31T22:52:09.122Z,102599.66
2019-03-31T22:55:31.579Z,102595.23
2019-03-31T22:57:26.156Z,102597.11
2019-03-31T23:00:05.282Z,102590.80
2019-03-31T23:02:33.088Z,102599.16
2019-03-31T23:05:00.867Z,102598.38
2019-03-31T23:07:28.597Z,102603.08
2019-03-31T23:09:56.298Z,102603.64
2019-03-31T23:12:23.991Z,102599.18
2019-03-31T23:14:51.718Z,102591.66
2019-03-31T23:17:19.421Z,102598.33
2019-03-31T23:19:47.137Z,102602.63
2019-03-31T23:22:14.875Z,102548.18
2019-03-31T23:24:42.589Z,102594.72
2019-03-31T23:27:10.295Z,102588.59
2019-03-31T23:29:38.035Z,102591.83
2019-03-31T23:32:05.766Z,102516.97
2019-03-31T23:34:33.582Z,102590.94
2019-03-31T23:37:02.591Z,102502.78
2019-03-31T23:39:30.436Z,102594.80
2019-03-31T23:42:00.970Z,102591.41
2019-03-31T23:44:28.754Z,102596.52
2019-03-31T23:46:56.525Z,102592.86
2019-03-31T23:49:24.353Z,102589.99
2019-03-31T23:51:52.156Z,102543.42
2019-03-31T23:54:19.867Z,102588.20
2019-03-31T23:56:47.558Z,102585.58
2019-03-31T23:59:15.303Z,102590.08
